Terminal Aerodrome Forecast
Issued by NWS Greer, SC

Home | Current Version | Previous Version | Text Only | Print | Product List | Glossary On
Versions: 1 2 3 4 5 6 7 8 9 10 11 12 13 14 15 16 17 18 19 20 21 22 23 24
000
FTUS42 KGSP 251038 AAB
TAFCLT
TAF AMD
KCLT 251038Z 2511/2606 19010KT P6SM VCSH SCT040 BKN060
      WS020/21035KT
      TEMPO 2514/2516 4SM -TSRA OVC015CB
     FM251600 22011G18KT P6SM BKN045
     FM252100 28013G23KT P6SM FEW250
     FM260300 32008KT P6SM SKC=

USA.gov is the U.S. government's official web portal to all federal, state and local government web resources and services.